createdAt,value
2018-03-22T00:00:46.113Z,0.00
2018-03-22T00:01:46.082Z,0.00
2018-03-22T00:02:46.050Z,0.00
2018-03-22T00:03:46.021Z,0.00
2018-03-22T00:04:46.002Z,0.00
2018-03-22T00:05:45.978Z,0.00
2018-03-22T00:06:45.952Z,0.00
2018-03-22T00:07:45.922Z,0.00
2018-03-22T00:08:45.882Z,0.00
2018-03-22T00:09:45.862Z,0.00
2018-03-22T00:10:45.826Z,0.00
2018-03-22T00:11:45.804Z,0.00
2018-03-22T00:12:45.775Z,0.00
2018-03-22T00:13:45.747Z,0.00
2018-03-22T00:14:45.719Z,0.00
2018-03-22T00:15:45.688Z,0.00
2018-03-22T00:16:45.666Z,0.00
2018-03-22T00:17:45.631Z,0.00
2018-03-22T00:18:45.608Z,0.00
2018-03-22T00:19:45.583Z,0.00
2018-03-22T00:20:45.547Z,0.00
2018-03-22T00:21:45.529Z,0.00
2018-03-22T00:22:45.494Z,0.00
2018-03-22T00:23:45.471Z,0.00
2018-03-22T00:24:45.440Z,0.00
2018-03-22T00:25:45.408Z,0.00
2018-03-22T00:26:45.387Z,0.00
2018-03-22T00:27:45.360Z,0.00
2018-03-22T00:28:45.343Z,0.00
2018-03-22T00:29:45.302Z,0.00
2018-03-22T00:30:45.278Z,0.00
2018-03-22T00:31:45.240Z,0.00
2018-03-22T00:32:45.304Z,0.00
2018-03-22T00:33:45.182Z,0.00
2018-03-22T00:34:45.154Z,0.00
2018-03-22T00:35:45.136Z,0.00
2018-03-22T00:36:45.110Z,0.00
2018-03-22T00:37:45.080Z,0.00
2018-03-22T00:38:45.051Z,0.00
2018-03-22T00:39:45.025Z,0.00
2018-03-22T00:40:44.987Z,0.00
2018-03-22T00:41:44.965Z,0.00
2018-03-22T00:42:44.939Z,0.00
2018-03-22T00:43:44.901Z,0.00
2018-03-22T00:44:44.883Z,0.00
2018-03-22T00:45:44.852Z,0.00
2018-03-22T00:46:44.815Z,0.00
2018-03-22T00:47:44.799Z,0.00
2018-03-22T00:48:44.767Z,0.00
2018-03-22T00:49:44.739Z,0.00
2018-03-22T00:50:44.716Z,0.00
2018-03-22T00:51:44.688Z,0.00
2018-03-22T00:52:44.660Z,0.00
2018-03-22T00:53:44.624Z,0.00
2018-03-22T00:54:44.601Z,0.00
2018-03-22T00:55:44.576Z,0.00
2018-03-22T00:56:44.549Z,0.00
2018-03-22T00:57:44.516Z,0.00
2018-03-22T00:58:44.499Z,0.00
2018-03-22T00:59:44.463Z,0.00
2018-03-22T01:00:44.430Z,0.00
2018-03-22T01:01:44.409Z,0.00
2018-03-22T01:02:44.371Z,0.00
2018-03-22T01:03:44.352Z,0.00
2018-03-22T01:04:44.321Z,0.00
2018-03-22T01:05:44.290Z,0.00
2018-03-22T01:06:44.264Z,0.00
2018-03-22T01:07:44.237Z,0.00
2018-03-22T01:08:44.206Z,0.00
2018-03-22T01:09:44.178Z,0.00
2018-03-22T01:10:44.180Z,0.00
2018-03-22T01:11:44.118Z,0.00
2018-03-22T01:12:44.098Z,0.00
2018-03-22T01:13:44.067Z,0.00
2018-03-22T01:14:44.038Z,0.00
2018-03-22T01:15:44.016Z,0.00
2018-03-22T01:16:43.986Z,0.00
2018-03-22T01:17:43.960Z,0.00
2018-03-22T01:18:43.929Z,0.00
2018-03-22T01:19:43.903Z,0.00
2018-03-22T01:20:43.872Z,0.00
2018-03-22T01:21:43.843Z,0.00
2018-03-22T01:22:43.827Z,0.00
2018-03-22T01:23:43.783Z,0.00
2018-03-22T01:24:43.765Z,0.00
2018-03-22T01:25:43.731Z,0.00
2018-03-22T01:26:43.704Z,0.00
2018-03-22T01:27:43.683Z,0.00
2018-03-22T01:28:43.645Z,0.00
2018-03-22T01:29:43.629Z,0.00
2018-03-22T01:30:43.590Z,0.00
2018-03-22T01:31:43.566Z,0.00
2018-03-22T01:32:43.530Z,0.00
2018-03-22T01:33:43.512Z,0.00
2018-03-22T01:34:43.490Z,0.00
2018-03-22T01:35:43.449Z,0.00
2018-03-22T01:36:43.424Z,0.00
2018-03-22T01:37:43.394Z,0.00
2018-03-22T01:38:43.368Z,0.00
2018-03-22T01:39:43.342Z,0.00
2018-03-22T01:40:43.323Z,0.00
2018-03-22T01:41:43.291Z,0.00
2018-03-22T01:42:43.264Z,0.00
2018-03-22T01:43:43.225Z,0.00
2018-03-22T01:44:43.202Z,0.00
2018-03-22T01:45:43.171Z,0.00
2018-03-22T01:46:43.147Z,0.00
2018-03-22T01:47:43.119Z,0.00
2018-03-22T01:48:43.085Z,0.00
2018-03-22T01:49:43.069Z,0.00
2018-03-22T01:50:43.049Z,0.00
2018-03-22T01:51:43.007Z,0.00
2018-03-22T01:52:42.976Z,0.00
2018-03-22T01:53:42.945Z,0.00
2018-03-22T01:54:42.914Z,0.00
2018-03-22T01:55:42.895Z,0.00
2018-03-22T01:56:42.859Z,0.00
2018-03-22T01:57:42.836Z,0.00
2018-03-22T01:58:42.809Z,0.00
2018-03-22T01:59:42.774Z,0.00
2018-03-22T02:00:42.750Z,0.00
2018-03-22T02:01:42.728Z,0.00
2018-03-22T02:02:42.692Z,0.00
2018-03-22T02:03:42.672Z,0.00
2018-03-22T02:04:42.642Z,0.00
2018-03-22T02:05:42.615Z,0.00
2018-03-22T02:06:42.585Z,0.00
2018-03-22T02:07:42.552Z,0.00
2018-03-22T02:08:42.526Z,0.00
2018-03-22T02:09:42.497Z,0.00
2018-03-22T02:10:42.472Z,0.00
2018-03-22T02:11:42.459Z,0.00
2018-03-22T02:12:42.416Z,0.00
2018-03-22T02:13:42.383Z,0.00
2018-03-22T02:14:42.357Z,0.00
2018-03-22T02:15:42.329Z,0.00
2018-03-22T02:16:42.300Z,0.00
2018-03-22T02:17:42.275Z,0.00
2018-03-22T02:18:42.254Z,0.00
2018-03-22T02:19:42.216Z,0.00
2018-03-22T02:20:42.196Z,0.00
2018-03-22T02:21:42.159Z,0.00
2018-03-22T02:22:42.131Z,0.00
2018-03-22T02:23:42.105Z,0.00
2018-03-22T02:24:42.102Z,0.00
2018-03-22T02:25:42.047Z,0.00
2018-03-22T02:26:42.027Z,0.00
2018-03-22T02:27:41.994Z,0.00
2018-03-22T02:28:41.964Z,0.00
2018-03-22T02:29:41.935Z,0.00
2018-03-22T02:30:41.904Z,0.00
2018-03-22T02:31:41.881Z,0.00
2018-03-22T02:32:41.848Z,0.00
2018-03-22T02:33:41.828Z,0.00
2018-03-22T02:34:41.791Z,0.00
2018-03-22T02:35:41.772Z,0.00
2018-03-22T02:36:41.734Z,0.00
2018-03-22T02:37:41.716Z,0.00
2018-03-22T02:38:41.754Z,0.00
2018-03-22T02:39:41.650Z,0.00
2018-03-22T02:40:41.649Z,0.00
2018-03-22T02:41:41.600Z,0.00
2018-03-22T02:42:41.566Z,0.00
2018-03-22T02:43:41.552Z,0.00
2018-03-22T02:44:41.518Z,0.00
2018-03-22T02:45:41.507Z,0.00
2018-03-22T02:46:41.461Z,0.00
2018-03-22T02:47:41.426Z,0.00
2018-03-22T02:48:41.398Z,0.00
2018-03-22T02:49:41.374Z,0.00
2018-03-22T02:50:41.346Z,0.00
2018-03-22T02:51:41.318Z,0.00
2018-03-22T02:52:41.296Z,0.00
2018-03-22T02:53:41.266Z,0.00
2018-03-22T02:54:41.232Z,0.00
2018-03-22T02:55:41.210Z,0.00
2018-03-22T02:56:41.177Z,0.00
2018-03-22T02:57:41.149Z,0.00
2018-03-22T02:58:41.129Z,0.00
2018-03-22T02:59:41.089Z,0.00
2018-03-22T03:00:41.072Z,0.00
2018-03-22T03:01:41.042Z,0.00
2018-03-22T03:02:41.007Z,0.00
2018-03-22T03:03:40.984Z,0.00
2018-03-22T03:04:41.041Z,0.00
2018-03-22T03:05:40.929Z,0.00
2018-03-22T03:06:40.894Z,0.00
2018-03-22T03:07:40.879Z,0.00
2018-03-22T03:08:40.841Z,0.00
2018-03-22T03:09:40.807Z,0.00
2018-03-22T03:10:40.790Z,0.00
2018-03-22T03:11:40.750Z,0.00
2018-03-22T03:12:40.725Z,0.00
2018-03-22T03:13:40.698Z,0.00
2018-03-22T03:14:40.669Z,0.00
2018-03-22T03:15:40.644Z,0.00
2018-03-22T03:16:40.613Z,0.00
2018-03-22T03:17:40.581Z,0.00
2018-03-22T03:18:40.561Z,0.00
2018-03-22T03:19:40.532Z,0.00
2018-03-22T03:20:40.507Z,0.00
2018-03-22T03:21:40.471Z,0.00
2018-03-22T03:22:40.450Z,0.00
2018-03-22T03:23:40.410Z,0.00
2018-03-22T03:24:40.423Z,0.00
2018-03-22T03:25:40.355Z,0.00
2018-03-22T03:26:40.332Z,0.00
2018-03-22T03:27:40.317Z,0.00
2018-03-22T03:28:40.271Z,0.00
2018-03-22T03:29:40.248Z,0.00
2018-03-22T03:30:40.306Z,0.00
2018-03-22T03:33:11.842Z,0.00
2018-03-22T03:34:11.793Z,0.00
2018-03-22T03:36:04.735Z,0.00
2018-03-22T03:37:04.638Z,0.00
2018-03-22T03:38:57.555Z,0.00
2018-03-22T03:39:57.486Z,0.00
2018-03-22T03:41:50.400Z,0.00
2018-03-22T03:42:50.347Z,0.00
2018-03-22T03:44:43.226Z,0.00
2018-03-22T03:45:43.189Z,0.00
2018-03-22T03:47:36.105Z,0.00
2018-03-22T03:48:36.036Z,0.00
2018-03-22T03:50:28.922Z,0.00
2018-03-22T03:51:28.886Z,0.00
2018-03-22T03:53:21.804Z,0.00
2018-03-22T03:54:21.743Z,0.00
2018-03-22T03:56:14.627Z,0.00
2018-03-22T03:57:14.587Z,0.00
2018-03-22T03:59:07.496Z,0.00
2018-03-22T04:00:07.438Z,0.00
2018-03-22T04:02:00.340Z,0.00
2018-03-22T04:03:00.293Z,0.00
2018-03-22T04:04:53.208Z,0.00
2018-03-22T04:05:53.142Z,0.00
2018-03-22T04:07:46.040Z,0.00
2018-03-22T04:08:45.989Z,0.00
2018-03-22T04:10:38.915Z,0.00
2018-03-22T04:11:38.843Z,0.00
2018-03-22T04:13:31.726Z,0.00
2018-03-22T04:14:31.692Z,0.00
2018-03-22T04:16:24.613Z,0.00
2018-03-22T04:17:24.534Z,0.00
2018-03-22T04:19:17.442Z,0.00
2018-03-22T04:20:17.401Z,0.00
2018-03-22T04:22:11.348Z,0.00
2018-03-22T04:23:11.280Z,0.00
2018-03-22T04:25:04.151Z,0.00
2018-03-22T04:26:04.118Z,0.00
2018-03-22T04:27:57.036Z,0.00
2018-03-22T04:28:56.966Z,0.00
2018-03-22T04:30:49.857Z,0.00
2018-03-22T04:31:49.820Z,0.00
2018-03-22T04:33:42.755Z,0.00
2018-03-22T04:34:42.666Z,0.00
2018-03-22T04:36:35.552Z,0.00
2018-03-22T04:37:35.517Z,0.00
2018-03-22T04:39:28.443Z,0.00
2018-03-22T04:40:28.374Z,0.00
2018-03-22T04:42:21.262Z,0.00
2018-03-22T04:43:21.219Z,0.00
2018-03-22T04:45:14.153Z,0.00
2018-03-22T04:46:14.079Z,0.00
2018-03-22T04:48:07.065Z,0.00
2018-03-22T04:49:07.027Z,0.00
2018-03-22T04:50:59.935Z,0.00
2018-03-22T04:51:59.871Z,0.00
2018-03-22T04:53:52.768Z,0.00
2018-03-22T04:54:52.721Z,0.00
2018-03-22T04:56:45.655Z,0.00
2018-03-22T04:57:45.573Z,0.00
2018-03-22T04:59:38.562Z,0.00
2018-03-22T05:00:38.527Z,0.00
2018-03-22T05:01:38.508Z,0.00
2018-03-22T05:02:38.469Z,0.00
2018-03-22T05:03:38.449Z,0.00
2018-03-22T05:04:38.408Z,0.00
2018-03-22T05:05:38.377Z,0.00
2018-03-22T05:06:38.356Z,0.00
2018-03-22T05:07:38.328Z,0.00
2018-03-22T05:08:38.301Z,4.00
2018-03-22T05:09:38.265Z,0.00
2018-03-22T05:10:38.259Z,4.00
2018-03-22T05:11:38.222Z,4.00
2018-03-22T05:12:38.181Z,4.00
2018-03-22T05:13:38.164Z,4.00
2018-03-22T05:14:38.129Z,4.00
2018-03-22T05:15:38.104Z,8.00
2018-03-22T05:16:38.075Z,4.00
2018-03-22T05:17:38.043Z,8.00
2018-03-22T05:18:38.027Z,8.00
2018-03-22T05:19:37.990Z,8.00
2018-03-22T05:20:37.969Z,8.00
2018-03-22T05:21:37.933Z,12.00
2018-03-22T05:22:37.905Z,16.00
2018-03-22T05:23:37.876Z,16.00
2018-03-22T05:24:37.852Z,20.00
2018-03-22T05:25:37.821Z,20.00
2018-03-22T05:26:37.794Z,24.00
2018-03-22T05:27:37.764Z,28.00
2018-03-22T05:28:37.737Z,32.00
2018-03-22T05:29:37.704Z,32.00
2018-03-22T05:30:37.678Z,36.00
2018-03-22T05:31:37.654Z,40.00
2018-03-22T05:32:37.619Z,44.00
2018-03-22T05:33:37.595Z,48.00
2018-03-22T05:34:37.571Z,48.00
2018-03-22T05:35:37.539Z,56.00
2018-03-22T05:36:37.508Z,56.00
2018-03-22T05:37:37.482Z,60.00
2018-03-22T05:38:37.456Z,68.00
2018-03-22T05:39:37.428Z,80.00
2018-03-22T05:40:37.406Z,80.00
2018-03-22T05:41:37.369Z,84.00
2018-03-22T05:42:37.346Z,80.00
2018-03-22T05:43:37.318Z,88.00
2018-03-22T05:44:37.282Z,104.00
2018-03-22T05:45:37.272Z,108.00
2018-03-22T05:46:37.226Z,112.00
2018-03-22T05:47:37.206Z,116.00
2018-03-22T05:48:37.173Z,116.00
2018-03-22T05:49:37.146Z,116.00
2018-03-22T05:50:37.115Z,116.00
2018-03-22T05:51:37.095Z,112.00
2018-03-22T05:52:37.064Z,104.00
2018-03-22T05:53:37.037Z,128.00
2018-03-22T05:54:37.008Z,124.00
2018-03-22T05:55:36.975Z,148.00
2018-03-22T05:56:36.943Z,136.00
2018-03-22T05:57:36.918Z,148.00
2018-03-22T05:58:36.890Z,164.00
2018-03-22T05:59:36.860Z,148.00
2018-03-22T06:00:36.842Z,180.00
2018-03-22T06:01:36.825Z,212.00
2018-03-22T06:02:36.785Z,240.00
2018-03-22T06:03:36.764Z,240.00
2018-03-22T06:04:36.728Z,244.00
2018-03-22T06:05:36.690Z,276.00
2018-03-22T06:06:36.677Z,300.00
2018-03-22T06:07:36.649Z,324.00
2018-03-22T06:08:36.599Z,324.00
2018-03-22T06:09:36.581Z,328.00
2018-03-22T06:10:36.548Z,364.00
2018-03-22T06:11:36.525Z,436.00
2018-03-22T06:12:36.498Z,484.00
2018-03-22T06:13:36.466Z,480.00
2018-03-22T06:14:36.435Z,468.00
2018-03-22T06:15:36.412Z,404.00
2018-03-22T06:16:36.379Z,436.00
2018-03-22T06:17:36.357Z,460.00
2018-03-22T06:18:36.330Z,460.00
2018-03-22T06:19:36.304Z,508.00
2018-03-22T06:20:36.267Z,508.00
2018-03-22T06:21:36.248Z,496.00
2018-03-22T06:22:36.205Z,540.00
2018-03-22T06:23:36.182Z,464.00
2018-03-22T06:24:36.156Z,592.00
2018-03-22T06:25:36.126Z,544.00
2018-03-22T06:26:36.106Z,536.00
2018-03-22T06:27:36.073Z,564.00
2018-03-22T06:28:36.038Z,596.00
2018-03-22T06:29:36.016Z,700.00
2018-03-22T06:30:35.992Z,704.00
2018-03-22T06:31:35.954Z,708.00
2018-03-22T06:32:35.928Z,752.00
2018-03-22T06:33:35.895Z,624.00
2018-03-22T06:34:35.867Z,656.00
2018-03-22T06:35:35.848Z,668.00
2018-03-22T06:36:35.820Z,636.00
2018-03-22T06:37:35.781Z,660.00
2018-03-22T06:38:35.761Z,724.00
2018-03-22T06:39:35.723Z,692.00
2018-03-22T06:40:35.697Z,792.00
2018-03-22T06:41:35.676Z,784.00
2018-03-22T06:42:35.635Z,752.00
2018-03-22T06:43:35.610Z,1004.00
2018-03-22T06:44:35.597Z,940.00
2018-03-22T06:45:35.559Z,1092.00
2018-03-22T06:46:35.530Z,1156.00
2018-03-22T06:47:35.500Z,956.00
2018-03-22T06:48:35.473Z,1204.00
2018-03-22T06:49:35.496Z,1264.00
2018-03-22T06:50:35.410Z,1248.00
2018-03-22T06:51:35.390Z,1236.00
2018-03-22T06:52:35.365Z,1400.00
2018-03-22T06:53:35.331Z,1388.00
2018-03-22T06:54:35.297Z,1264.00
2018-03-22T06:55:35.271Z,1384.00
2018-03-22T06:56:35.243Z,1472.00
2018-03-22T06:57:35.213Z,1244.00
2018-03-22T06:58:35.186Z,1368.00
2018-03-22T06:59:35.154Z,1208.00
2018-03-22T07:00:35.128Z,1528.00
2018-03-22T07:01:35.099Z,1268.00
2018-03-22T07:02:35.079Z,1512.00
2018-03-22T07:03:35.036Z,1380.00
2018-03-22T07:04:35.013Z,1524.00
2018-03-22T07:05:34.981Z,1472.00
2018-03-22T07:06:34.956Z,1600.00
2018-03-22T07:07:34.935Z,1556.00
2018-03-22T07:08:34.898Z,1428.00
2018-03-22T07:09:34.874Z,1376.00
2018-03-22T07:10:34.846Z,1320.00
2018-03-22T07:11:34.821Z,1284.00
2018-03-22T07:12:34.783Z,1404.00
2018-03-22T07:13:34.755Z,1620.00
2018-03-22T07:14:34.748Z,1364.00
2018-03-22T07:15:34.710Z,1268.00
2018-03-22T07:16:34.671Z,1296.00
2018-03-22T07:17:34.643Z,1236.00
2018-03-22T07:18:34.608Z,1432.00
2018-03-22T07:19:34.588Z,1400.00
2018-03-22T07:20:34.558Z,1428.00
2018-03-22T07:21:34.532Z,1544.00
2018-03-22T07:22:34.506Z,1480.00
2018-03-22T07:23:34.464Z,1616.00
2018-03-22T07:24:34.444Z,1372.00
2018-03-22T07:25:34.421Z,1560.00
2018-03-22T07:26:34.388Z,1760.00
2018-03-22T07:27:34.363Z,1104.00
2018-03-22T07:28:34.329Z,1548.00
2018-03-22T07:29:34.307Z,1536.00
2018-03-22T07:30:34.275Z,1600.00
2018-03-22T07:31:34.248Z,1716.00
2018-03-22T07:32:34.236Z,2412.00
2018-03-22T07:33:34.196Z,2328.00
2018-03-22T07:34:34.166Z,2348.00
2018-03-22T07:35:34.128Z,2724.00
2018-03-22T07:36:34.112Z,2556.00
2018-03-22T07:37:34.076Z,2440.00
2018-03-22T07:38:34.050Z,2012.00
2018-03-22T07:39:34.010Z,1744.00
2018-03-22T07:40:33.987Z,1416.00
2018-03-22T07:41:33.957Z,1532.00
2018-03-22T07:42:33.933Z,1652.00
2018-03-22T07:43:33.902Z,1932.00
2018-03-22T07:44:33.863Z,1904.00
2018-03-22T07:45:33.841Z,1936.00
2018-03-22T07:46:33.815Z,2588.00
2018-03-22T07:47:33.790Z,2420.00
2018-03-22T07:48:33.762Z,2272.00
2018-03-22T07:49:33.727Z,1572.00
2018-03-22T07:50:33.702Z,1308.00
2018-03-22T07:51:33.669Z,1188.00
2018-03-22T07:52:33.645Z,1200.00
2018-03-22T07:53:33.614Z,1156.00
2018-03-22T07:54:33.592Z,1264.00
2018-03-22T07:55:33.563Z,1604.00
2018-03-22T07:56:33.530Z,1784.00
2018-03-22T07:57:33.503Z,1748.00
2018-03-22T07:58:33.469Z,1932.00
2018-03-22T07:59:33.453Z,1840.00
2018-03-22T08:00:33.423Z,1920.00
2018-03-22T08:01:33.398Z,1676.00
2018-03-22T08:02:33.366Z,1936.00
2018-03-22T08:03:33.338Z,1828.00
2018-03-22T08:04:33.308Z,1888.00
2018-03-22T08:05:33.274Z,1832.00
2018-03-22T08:06:33.246Z,2136.00
2018-03-22T08:07:33.225Z,1960.00
2018-03-22T08:08:33.189Z,1736.00
2018-03-22T08:09:33.190Z,1568.00
2018-03-22T08:10:33.141Z,1516.00
2018-03-22T08:11:33.111Z,1564.00
2018-03-22T08:12:33.077Z,1884.00
2018-03-22T08:13:33.052Z,2000.00
2018-03-22T08:14:33.029Z,1776.00
2018-03-22T08:15:32.986Z,1800.00
2018-03-22T08:16:33.224Z,2124.00
2018-03-22T08:17:32.969Z,2460.00
2018-03-22T08:18:32.909Z,2304.00
2018-03-22T08:19:32.885Z,2344.00
2018-03-22T08:20:32.905Z,2720.00
2018-03-22T08:21:32.821Z,3392.00
2018-03-22T08:22:32.792Z,2876.00
2018-03-22T08:23:32.766Z,2712.00
2018-03-22T08:24:32.748Z,2708.00
2018-03-22T08:25:32.705Z,2212.00
2018-03-22T08:26:32.684Z,2348.00
2018-03-22T08:27:32.648Z,2176.00
2018-03-22T08:28:32.626Z,1960.00
2018-03-22T08:29:32.659Z,2472.00
2018-03-22T08:30:32.608Z,2804.00
2018-03-22T08:31:32.676Z,2216.00
2018-03-22T08:32:32.542Z,2196.00
2018-03-22T08:33:32.548Z,2716.00
2018-03-22T08:34:32.506Z,2240.00
2018-03-22T08:35:32.480Z,2580.00
2018-03-22T08:36:32.403Z,2216.00
2018-03-22T08:37:32.372Z,2204.00
2018-03-22T08:38:32.479Z,2468.00
2018-03-22T08:39:32.310Z,2220.00
2018-03-22T08:40:32.287Z,2220.00
2018-03-22T08:41:32.322Z,2168.00
2018-03-22T08:42:32.367Z,2168.00
2018-03-22T08:43:32.243Z,1776.00
2018-03-22T08:44:32.243Z,1644.00
2018-03-22T08:45:32.206Z,1620.00
2018-03-22T08:46:32.242Z,1848.00
2018-03-22T08:47:32.165Z,1896.00
2018-03-22T08:48:32.054Z,2428.00
2018-03-22T08:49:32.026Z,2584.00
2018-03-22T08:50:32.042Z,2664.00
2018-03-22T08:51:32.025Z,2568.00
2018-03-22T08:52:32.025Z,2692.00
2018-03-22T08:53:31.916Z,2464.00
2018-03-22T08:54:31.885Z,2184.00
2018-03-22T08:55:31.970Z,1780.00
2018-03-22T08:56:31.822Z,1832.00
2018-03-22T08:57:31.802Z,1672.00
2018-03-22T08:58:31.774Z,1892.00
2018-03-22T08:59:31.787Z,1804.00
2018-03-22T09:00:31.743Z,1776.00
2018-03-22T09:01:31.689Z,1724.00
2018-03-22T09:02:31.793Z,1780.00
2018-03-22T09:03:31.697Z,2028.00
2018-03-22T09:04:31.608Z,2392.00
2018-03-22T09:05:31.821Z,2000.00
2018-03-22T09:06:31.677Z,1624.00
2018-03-22T09:07:31.518Z,1812.00
2018-03-22T09:08:31.491Z,1796.00
2018-03-22T09:09:31.465Z,1528.00
2018-03-22T09:10:31.430Z,1776.00
2018-03-22T09:11:31.408Z,1800.00
2018-03-22T09:12:31.439Z,1652.00
2018-03-22T09:13:31.358Z,1688.00
2018-03-22T09:14:31.382Z,1604.00
2018-03-22T09:15:31.299Z,1524.00
2018-03-22T09:16:31.353Z,1804.00
2018-03-22T09:17:31.234Z,2080.00
2018-03-22T09:18:31.266Z,2256.00
2018-03-22T09:19:31.221Z,1936.00
2018-03-22T09:20:31.149Z,1488.00
2018-03-22T09:21:31.216Z,1424.00
2018-03-22T09:22:31.136Z,1640.00
2018-03-22T09:23:31.122Z,1900.00
2018-03-22T09:24:31.038Z,1892.00
2018-03-22T09:25:31.021Z,1720.00
2018-03-22T09:26:31.074Z,1692.00
2018-03-22T09:27:30.954Z,1980.00
2018-03-22T09:28:30.929Z,2216.00
2018-03-22T09:29:30.944Z,2272.00
2018-03-22T09:30:30.883Z,2228.00
2018-03-22T09:31:30.841Z,2000.00
2018-03-22T09:32:30.811Z,1984.00
2018-03-22T09:33:30.793Z,1828.00
2018-03-22T09:34:30.840Z,1772.00
2018-03-22T09:35:30.742Z,2276.00
2018-03-22T09:36:30.770Z,2332.00
2018-03-22T09:37:30.677Z,2548.00
2018-03-22T09:38:30.743Z,2496.00
2018-03-22T09:39:30.622Z,2124.00
2018-03-22T09:40:30.647Z,1868.00
2018-03-22T09:41:30.636Z,2056.00
2018-03-22T09:42:30.535Z,2148.00
2018-03-22T09:43:30.512Z,2400.00
2018-03-22T09:44:30.513Z,2196.00
2018-03-22T09:45:30.481Z,2632.00
2018-03-22T09:46:30.473Z,2808.00
2018-03-22T09:47:30.397Z,2964.00
2018-03-22T09:48:30.420Z,3120.00
2018-03-22T09:49:30.489Z,2784.00
2018-03-22T09:50:30.303Z,2316.00
2018-03-22T09:51:30.288Z,2428.00
2018-03-22T09:52:30.329Z,2444.00
2018-03-22T09:53:30.229Z,3700.00
2018-03-22T09:54:30.281Z,3232.00
2018-03-22T09:55:30.161Z,2596.00
2018-03-22T09:56:30.144Z,2616.00
2018-03-22T09:57:30.112Z,2556.00
2018-03-22T09:58:30.087Z,2576.00
2018-03-22T09:59:30.051Z,2208.00
2018-03-22T10:00:30.030Z,2340.00
2018-03-22T10:01:30.038Z,2624.00
2018-03-22T10:02:29.972Z,2880.00
2018-03-22T10:03:30.006Z,3288.00
2018-03-22T10:04:29.966Z,3088.00
2018-03-22T10:05:29.967Z,3248.00
2018-03-22T10:06:29.870Z,3048.00
2018-03-22T10:07:29.834Z,3092.00
2018-03-22T10:08:29.858Z,2796.00
2018-03-22T10:09:29.775Z,2752.00
2018-03-22T10:10:29.749Z,2452.00
2018-03-22T10:11:29.796Z,2188.00
2018-03-22T10:12:29.696Z,2228.00
2018-03-22T10:13:29.730Z,2336.00
2018-03-22T10:14:29.664Z,2304.00
2018-03-22T10:15:29.693Z,2252.00
2018-03-22T10:16:29.577Z,2100.00
2018-03-22T10:17:29.562Z,2260.00
2018-03-22T10:18:29.555Z,2172.00
2018-03-22T10:19:29.497Z,2484.00
2018-03-22T10:20:29.531Z,2632.00
2018-03-22T10:21:29.440Z,3236.00
2018-03-22T10:22:29.486Z,2704.00
2018-03-22T10:23:29.380Z,2756.00
2018-03-22T10:24:29.357Z,2860.00
2018-03-22T10:25:29.396Z,3416.00
2018-03-22T10:26:29.302Z,2972.00
2018-03-22T10:27:29.313Z,2840.00
2018-03-22T10:28:29.309Z,2844.00
2018-03-22T10:29:29.216Z,2468.00
2018-03-22T10:30:29.189Z,2344.00
2018-03-22T10:31:29.225Z,2272.00
2018-03-22T10:32:29.133Z,2104.00
2018-03-22T10:33:29.147Z,2364.00
2018-03-22T10:34:29.121Z,2812.00
2018-03-22T10:35:29.147Z,2848.00
2018-03-22T10:36:29.055Z,2484.00
2018-03-22T10:37:29.054Z,2316.00
2018-03-22T10:38:28.969Z,2404.00
2018-03-22T10:39:28.935Z,2344.00
2018-03-22T10:40:28.910Z,2196.00
2018-03-22T10:41:28.876Z,1952.00
2018-03-22T10:42:28.918Z,1848.00
2018-03-22T10:43:28.826Z,1756.00
2018-03-22T10:44:28.798Z,1648.00
2018-03-22T10:45:28.779Z,1712.00
2018-03-22T10:46:28.744Z,1920.00
2018-03-22T10:47:28.713Z,2400.00
2018-03-22T10:48:28.710Z,2568.00
2018-03-22T10:49:28.656Z,2684.00
2018-03-22T10:50:28.628Z,2688.00
2018-03-22T10:51:28.597Z,2624.00
2018-03-22T10:52:28.573Z,2612.00
2018-03-22T10:53:28.550Z,2984.00
2018-03-22T10:54:28.619Z,3252.00
2018-03-22T10:55:28.492Z,3328.00
2018-03-22T10:56:28.507Z,2988.00
2018-03-22T10:57:28.483Z,2728.00
2018-03-22T10:58:28.462Z,2488.00
2018-03-22T10:59:28.372Z,2960.00
2018-03-22T11:00:28.415Z,2632.00
2018-03-22T11:01:28.327Z,2588.00
2018-03-22T11:02:28.326Z,3072.00
2018-03-22T11:03:28.275Z,3284.00
2018-03-22T11:04:28.239Z,3508.00
2018-03-22T11:05:28.281Z,3464.00
2018-03-22T11:06:28.186Z,3180.00
2018-03-22T11:07:28.213Z,2752.00
2018-03-22T11:08:28.205Z,2728.00
2018-03-22T11:09:28.119Z,2748.00
2018-03-22T11:10:28.078Z,2672.00
2018-03-22T11:11:28.038Z,2544.00
2018-03-22T11:12:28.015Z,2880.00
2018-03-22T11:13:27.986Z,3120.00
2018-03-22T11:14:28.011Z,2816.00
2018-03-22T11:15:27.945Z,2676.00
2018-03-22T11:16:27.950Z,2540.00
2018-03-22T11:17:27.952Z,2524.00
2018-03-22T11:18:27.888Z,2364.00
2018-03-22T11:19:27.904Z,2228.00
2018-03-22T11:20:27.794Z,2128.00
2018-03-22T11:21:27.762Z,2080.00
2018-03-22T11:22:27.787Z,1924.00
2018-03-22T11:23:27.710Z,2324.00
2018-03-22T11:24:27.687Z,2140.00
2018-03-22T11:25:27.657Z,2464.00
2018-03-22T11:26:27.627Z,2368.00
2018-03-22T11:27:27.598Z,2340.00
2018-03-22T11:28:27.567Z,2264.00
2018-03-22T11:29:27.543Z,2260.00
2018-03-22T11:30:27.514Z,2028.00
2018-03-22T11:31:27.492Z,2112.00
2018-03-22T11:32:27.535Z,2124.00
2018-03-22T11:33:27.438Z,2420.00
2018-03-22T11:34:27.443Z,2448.00
2018-03-22T11:35:27.397Z,2544.00
2018-03-22T11:36:27.348Z,2148.00
2018-03-22T11:37:27.319Z,2116.00
2018-03-22T11:38:27.297Z,2564.00
2018-03-22T11:39:27.362Z,2608.00
2018-03-22T11:40:27.245Z,2428.00
2018-03-22T11:41:27.209Z,2524.00
2018-03-22T11:42:27.185Z,2876.00
2018-03-22T11:43:27.156Z,2552.00
2018-03-22T11:44:27.129Z,2524.00
2018-03-22T11:45:27.102Z,2480.00
2018-03-22T11:46:27.079Z,2520.00
2018-03-22T11:47:27.047Z,2472.00
2018-03-22T11:48:27.060Z,2740.00
2018-03-22T11:49:26.994Z,2892.00
2018-03-22T11:50:26.966Z,3076.00
2018-03-22T11:51:26.936Z,3428.00
2018-03-22T11:52:26.920Z,2404.00
2018-03-22T11:53:26.876Z,2784.00
2018-03-22T11:54:26.936Z,2848.00
2018-03-22T11:55:26.827Z,2692.00
2018-03-22T11:56:26.842Z,2416.00
2018-03-22T11:57:26.780Z,2248.00
2018-03-22T11:58:26.742Z,2340.00
2018-03-22T11:59:26.712Z,2612.00
2018-03-22T12:00:26.694Z,3104.00
2018-03-22T12:01:26.742Z,2776.00
2018-03-22T12:02:26.674Z,2612.00
2018-03-22T12:03:26.617Z,2440.00
2018-03-22T12:04:26.624Z,2708.00
2018-03-22T12:05:26.600Z,2968.00
2018-03-22T12:06:26.560Z,2812.00
2018-03-22T12:07:26.490Z,2652.00
2018-03-22T12:08:26.532Z,2744.00
2018-03-22T12:09:26.513Z,2916.00
2018-03-22T12:10:26.407Z,3344.00
2018-03-22T12:11:26.441Z,3880.00
2018-03-22T12:12:26.397Z,3440.00
2018-03-22T12:13:26.331Z,3172.00
2018-03-22T12:14:26.316Z,3312.00
2018-03-22T12:15:26.356Z,2992.00
2018-03-22T12:16:26.268Z,2460.00
2018-03-22T12:17:26.215Z,2244.00
2018-03-22T12:18:26.258Z,2280.00
2018-03-22T12:19:26.250Z,2376.00
2018-03-22T12:20:26.215Z,2052.00
2018-03-22T12:21:26.114Z,1768.00
2018-03-22T12:22:26.079Z,1880.00
2018-03-22T12:23:26.058Z,2152.00
2018-03-22T12:24:26.075Z,2344.00
2018-03-22T12:25:26.051Z,2836.00
2018-03-22T12:26:25.973Z,3216.00
2018-03-22T12:27:25.938Z,4264.00
2018-03-22T12:28:25.916Z,4008.00
2018-03-22T12:29:25.887Z,4624.00
2018-03-22T12:30:25.864Z,4672.00
2018-03-22T12:31:25.838Z,4116.00
2018-03-22T12:32:25.846Z,3364.00
2018-03-22T12:33:25.821Z,2820.00
2018-03-22T12:34:25.816Z,3516.00
2018-03-22T12:35:25.730Z,4572.00
2018-03-22T12:36:25.768Z,4244.00
2018-03-22T12:37:25.675Z,5360.00
2018-03-22T12:38:25.641Z,6168.00
2018-03-22T12:39:25.621Z,5388.00
2018-03-22T12:40:25.583Z,5124.00
2018-03-22T12:41:25.658Z,5508.00
2018-03-22T12:42:25.636Z,3252.00
2018-03-22T12:43:25.600Z,3764.00
2018-03-22T12:44:25.514Z,3808.00
2018-03-22T12:45:25.514Z,4724.00
2018-03-22T12:46:25.502Z,4392.00
2018-03-22T12:47:25.445Z,3432.00
2018-03-22T12:48:25.444Z,3624.00
2018-03-22T12:49:25.388Z,4268.00
2018-03-22T12:50:25.318Z,3888.00
2018-03-22T12:51:25.293Z,4124.00
2018-03-22T12:52:25.261Z,3832.00
2018-03-22T12:53:25.303Z,4328.00
2018-03-22T12:54:25.211Z,4052.00
2018-03-22T12:55:25.241Z,3744.00
2018-03-22T12:56:25.190Z,4116.00
2018-03-22T12:57:25.131Z,3540.00
2018-03-22T12:58:25.160Z,3580.00
2018-03-22T12:59:25.066Z,4696.00
2018-03-22T13:00:25.039Z,7688.00
2018-03-22T13:01:25.026Z,6020.00
2018-03-22T13:02:24.991Z,4988.00
2018-03-22T13:03:24.962Z,5056.00